sensor_id;sensor_type;location;lat;lon;timestamp;pressure;altitude;pressure_sealevel;temperature;humidity
29903;BME280;30288;50.514;9.678;2024-01-07T00:00:09;98266.88;;;4.70;100.00
29903;BME280;30288;50.514;9.678;2024-01-07T00:02:19;98275.97;;;4.71;100.00
29903;BME280;30288;50.514;9.678;2024-01-07T00:04:24;98271.09;;;4.64;100.00
29903;BME280;30288;50.514;9.678;2024-01-07T00:06:30;98278.59;;;4.62;100.00
29903;BME280;30288;50.514;9.678;2024-01-07T00:08:38;98276.09;;;4.64;100.00
29903;BME280;30288;50.514;9.678;2024-01-07T00:10:44;98276.88;;;4.66;100.00
29903;BME280;30288;50.514;9.678;2024-01-07T00:12:49;98277.75;;;4.65;100.00
29903;BME280;30288;50.514;9.678;2024-01-07T00:14:59;98282.78;;;4.59;100.00
29903;BME280;30288;50.514;9.678;2024-01-07T00:17:05;98283.69;;;4.55;100.00
29903;BME280;30288;50.514;9.678;2024-01-07T00:19:10;98281.13;;;4.58;100.00
29903;BME280;30288;50.514;9.678;2024-01-07T00:21:21;98289.53;;;4.51;100.00
29903;BME280;30288;50.514;9.678;2024-01-07T00:23:27;98291.34;;;4.36;100.00
29903;BME280;30288;50.514;9.678;2024-01-07T00:25:35;98295.56;;;4.28;100.00
29903;BME280;30288;50.514;9.678;2024-01-07T00:27:41;98299.78;;;4.23;100.00
29903;BME280;30288;50.514;9.678;2024-01-07T00:29:46;98300.69;;;4.16;100.00
29903;BME280;30288;50.514;9.678;2024-01-07T00:31:51;98303.19;;;4.16;100.00
29903;BME280;30288;50.514;9.678;2024-01-07T00:33:58;98290.75;;;4.13;100.00
29903;BME280;30288;50.514;9.678;2024-01-07T00:36:05;98299.84;;;4.17;100.00
29903;BME280;30288;50.514;9.678;2024-01-07T00:38:11;98300.75;;;4.09;100.00
29903;BME280;30288;50.514;9.678;2024-01-07T00:40:17;98303.28;;;4.04;100.00
29903;BME280;30288;50.514;9.678;2024-01-07T00:42:26;98303.34;;;3.98;100.00
29903;BME280;30288;50.514;9.678;2024-01-07T00:44:33;98306.69;;;3.97;100.00
29903;BME280;30288;50.514;9.678;2024-01-07T00:46:38;98313.34;;;3.92;100.00
29903;BME280;30288;50.514;9.678;2024-01-07T00:48:47;98315.03;;;3.90;100.00
29903;BME280;30288;50.514;9.678;2024-01-07T00:50:53;98321.69;;;3.85;100.00
29903;BME280;30288;50.514;9.678;2024-01-07T00:52:58;98323.41;;;3.83;100.00
29903;BME280;30288;50.514;9.678;2024-01-07T00:55:06;98327.53;;;3.82;100.00
29903;BME280;30288;50.514;9.678;2024-01-07T00:57:11;98335.03;;;3.84;100.00
29903;BME280;30288;50.514;9.678;2024-01-07T00:59:18;98325.81;;;3.90;100.00
29903;BME280;30288;50.514;9.678;2024-01-07T01:01:27;98336.66;;;3.85;100.00
29903;BME280;30288;50.514;9.678;2024-01-07T01:03:33;98335.06;;;3.76;100.00
29903;BME280;30288;50.514;9.678;2024-01-07T01:05:40;98344.22;;;3.73;100.00
29903;BME280;30288;50.514;9.678;2024-01-07T01:07:46;98339.31;;;3.65;100.00
29903;BME280;30288;50.514;9.678;2024-01-07T01:09:53;98341.81;;;3.61;100.00
29903;BME280;30288;50.514;9.678;2024-01-07T01:11:55;98353.41;;;3.62;100.00
29903;BME280;30288;50.514;9.678;2024-01-07T01:14:01;98345.16;;;3.60;100.00
29903;BME280;30288;50.514;9.678;2024-01-07T01:16:09;98343.47;;;3.62;100.00
29903;BME280;30288;50.514;9.678;2024-01-07T01:18:18;98353.38;;;3.68;100.00
29903;BME280;30288;50.514;9.678;2024-01-07T01:20:25;98356.78;;;3.61;100.00
29903;BME280;30288;50.514;9.678;2024-01-07T01:22:30;98348.47;;;3.59;100.00
29903;BME280;30288;50.514;9.678;2024-01-07T01:24:35;98355.13;;;3.53;100.00
29903;BME280;30288;50.514;9.678;2024-01-07T01:26:40;98356.75;;;3.58;100.00
29903;BME280;30288;50.514;9.678;2024-01-07T01:28:46;98361.75;;;3.61;100.00
29903;BME280;30288;50.514;9.678;2024-01-07T01:30:54;98365.06;;;3.60;100.00
29903;BME280;30288;50.514;9.678;2024-01-07T01:33:04;98363.41;;;3.59;100.00
29903;BME280;30288;50.514;9.678;2024-01-07T01:35:09;98363.38;;;3.62;100.00
29903;BME280;30288;50.514;9.678;2024-01-07T01:37:14;98369.22;;;3.61;100.00
29903;BME280;30288;50.514;9.678;2024-01-07T01:39:16;98373.38;;;3.59;100.00
29903;BME280;30288;50.514;9.678;2024-01-07T01:41:22;98366.75;;;3.55;100.00
29903;BME280;30288;50.514;9.678;2024-01-07T01:43:29;98370.09;;;3.50;100.00
29903;BME280;30288;50.514;9.678;2024-01-07T01:45:35;98373.41;;;3.49;100.00
29903;BME280;30288;50.514;9.678;2024-01-07T01:47:40;98378.38;;;3.52;100.00
29903;BME280;30288;50.514;9.678;2024-01-07T01:49:49;98385.03;;;3.49;100.00
29903;BME280;30288;50.514;9.678;2024-01-07T01:51:56;98376.75;;;3.45;100.00
29903;BME280;30288;50.514;9.678;2024-01-07T01:54:03;98380.91;;;3.46;100.00
29903;BME280;30288;50.514;9.678;2024-01-07T01:56:11;98385.09;;;3.41;100.00
29903;BME280;30288;50.514;9.678;2024-01-07T01:58:20;98376.78;;;3.39;100.00
29903;BME280;30288;50.514;9.678;2024-01-07T02:00:24;98385.09;;;3.41;100.00
29903;BME280;30288;50.514;9.678;2024-01-07T02:02:37;98385.09;;;3.41;100.00
29903;BME280;30288;50.514;9.678;2024-01-07T02:04:43;98391.72;;;3.39;100.00
29903;BME280;30288;50.514;9.678;2024-01-07T02:06:51;98395.00;;;3.47;100.00
29903;BME280;30288;50.514;9.678;2024-01-07T02:08:57;98387.50;;;3.52;100.00
29903;BME280;30288;50.514;9.678;2024-01-07T02:11:15;98386.66;;;3.53;100.00
29903;BME280;30288;50.514;9.678;2024-01-07T02:13:22;98393.38;;;3.46;100.00
29903;BME280;30288;50.514;9.678;2024-01-07T02:15:29;98398.31;;;3.49;100.00
29903;BME280;30288;50.514;9.678;2024-01-07T02:17:34;98395.03;;;3.44;100.00
29903;BME280;30288;50.514;9.678;2024-01-07T02:19:39;98392.53;;;3.44;100.00
29903;BME280;30288;50.514;9.678;2024-01-07T02:21:45;98398.31;;;3.49;100.00
29903;BME280;30288;50.514;9.678;2024-01-07T02:23:55;98401.63;;;3.51;100.00
29903;BME280;30288;50.514;9.678;2024-01-07T02:26:05;98409.94;;;3.47;100.00
29903;BME280;30288;50.514;9.678;2024-01-07T02:28:10;98400.00;;;3.44;100.00
29903;BME280;30288;50.514;9.678;2024-01-07T02:30:15;98406.63;;;3.42;100.00
29903;BME280;30288;50.514;9.678;2024-01-07T02:32:27;98410.81;;;3.42;100.00
29903;BME280;30288;50.514;9.678;2024-01-07T02:34:35;98407.50;;;3.41;100.00
29903;BME280;30288;50.514;9.678;2024-01-07T02:36:41;98414.94;;;3.38;100.00
29903;BME280;30288;50.514;9.678;2024-01-07T02:38:47;98409.16;;;3.36;100.00
29903;BME280;30288;50.514;9.678;2024-01-07T02:40:52;98410.81;;;3.36;100.00
29903;BME280;30288;50.514;9.678;2024-01-07T02:43:00;98415.81;;;3.36;100.00
29903;BME280;30288;50.514;9.678;2024-01-07T02:45:06;98415.78;;;3.39;100.00
29903;BME280;30288;50.514;9.678;2024-01-07T02:47:12;98415.81;;;3.34;100.00
29903;BME280;30288;50.514;9.678;2024-01-07T02:49:18;98412.47;;;3.38;100.00
29903;BME280;30288;50.514;9.678;2024-01-07T02:51:24;98426.59;;;3.36;100.00
29903;BME280;30288;50.514;9.678;2024-01-07T02:53:26;98422.47;;;3.25;100.00
29903;BME280;30288;50.514;9.678;2024-01-07T02:55:32;98429.97;;;3.20;100.00
29903;BME280;30288;50.514;9.678;2024-01-07T02:57:38;98425.03;;;3.08;100.00
29903;BME280;30288;50.514;9.678;2024-01-07T02:59:46;98430.00;;;3.08;100.00
29903;BME280;30288;50.514;9.678;2024-01-07T03:01:54;98420.06;;;3.05;100.00
29903;BME280;30288;50.514;9.678;2024-01-07T03:04:02;98426.72;;;3.03;100.00
29903;BME280;30288;50.514;9.678;2024-01-07T03:06:07;98427.53;;;3.02;100.00
29903;BME280;30288;50.514;9.678;2024-01-07T03:08:13;98430.06;;;2.93;100.00
29903;BME280;30288;50.514;9.678;2024-01-07T03:10:19;98425.91;;;2.89;100.00
29903;BME280;30288;50.514;9.678;2024-01-07T03:12:30;98421.78;;;2.88;100.00
29903;BME280;30288;50.514;9.678;2024-01-07T03:14:36;98431.75;;;2.79;100.00
29903;BME280;30288;50.514;9.678;2024-01-07T03:16:44;98436.72;;;2.79;100.00
29903;BME280;30288;50.514;9.678;2024-01-07T03:18:50;98440.06;;;2.66;100.00
29903;BME280;30288;50.514;9.678;2024-01-07T03:20:58;98444.16;;;2.67;100.00
29903;BME280;30288;50.514;9.678;2024-01-07T03:23:04;98453.28;;;2.61;100.00
29903;BME280;30288;50.514;9.678;2024-01-07T03:25:10;98450.00;;;2.56;100.00
29903;BME280;30288;50.514;9.678;2024-01-07T03:27:13;98449.19;;;2.56;100.00
29903;BME280;30288;50.514;9.678;2024-01-07T03:29:18;98451.69;;;2.42;100.00
29903;BME280;30288;50.514;9.678;2024-01-07T03:31:28;98442.53;;;2.44;100.00
29903;BME280;30288;50.514;9.678;2024-01-07T03:33:34;98453.31;;;2.34;100.00
29903;BME280;30288;50.514;9.678;2024-01-07T03:35:40;98454.16;;;2.27;100.00
29903;BME280;30288;50.514;9.678;2024-01-07T03:37:46;98450.00;;;2.26;100.00
29903;BME280;30288;50.514;9.678;2024-01-07T03:39:52;98459.94;;;2.20;100.00
29903;BME280;30288;50.514;9.678;2024-01-07T03:42:03;98462.41;;;2.20;100.00
29903;BME280;30288;50.514;9.678;2024-01-07T03:44:14;98461.59;;;2.27;100.00
29903;BME280;30288;50.514;9.678;2024-01-07T03:46:20;98466.56;;;2.21;100.00
29903;BME280;30288;50.514;9.678;2024-01-07T03:48:25;98463.25;;;2.22;100.00
29903;BME280;30288;50.514;9.678;2024-01-07T03:50:34;98462.44;;;2.23;100.00
29903;BME280;30288;50.514;9.678;2024-01-07T03:52:39;98464.91;;;2.20;100.00
29903;BME280;30288;50.514;9.678;2024-01-07T03:54:48;98464.91;;;2.26;100.00
29903;BME280;30288;50.514;9.678;2024-01-07T03:56:56;98476.50;;;2.24;100.00
29903;BME280;30288;50.514;9.678;2024-01-07T03:59:01;98474.84;;;2.17;100.00
29903;BME280;30288;50.514;9.678;2024-01-07T04:01:08;98481.44;;;2.15;100.00
29903;BME280;30288;50.514;9.678;2024-01-07T04:03:12;98476.47;;;2.15;100.00
29903;BME280;30288;50.514;9.678;2024-01-07T04:05:17;98483.09;;;2.16;100.00
29903;BME280;30288;50.514;9.678;2024-01-07T04:07:23;98483.09;;;2.07;100.00
29903;BME280;30288;50.514;9.678;2024-01-07T04:09:28;98486.41;;;2.03;100.00
29903;BME280;30288;50.514;9.678;2024-01-07T04:11:39;98483.94;;;2.12;100.00
29903;BME280;30288;50.514;9.678;2024-01-07T04:13:45;98491.34;;;1.95;100.00
29903;BME280;30288;50.514;9.678;2024-01-07T04:15:51;98497.97;;;1.89;100.00
29903;BME280;30288;50.514;9.678;2024-01-07T04:17:56;98487.97;;;1.76;100.00
29903;BME280;30288;50.514;9.678;2024-01-07T04:20:07;98486.34;;;1.80;100.00
29903;BME280;30288;50.514;9.678;2024-01-07T04:22:13;98501.22;;;1.72;100.00
29903;BME280;30288;50.514;9.678;2024-01-07T04:24:21;98506.19;;;1.72;100.00
29903;BME280;30288;50.514;9.678;2024-01-07T04:26:26;98505.31;;;1.63;100.00
29903;BME280;30288;50.514;9.678;2024-01-07T04:28:31;98514.41;;;1.62;100.00
29903;BME280;30288;50.514;9.678;2024-01-07T04:30:37;98512.75;;;1.55;100.00
29903;BME280;30288;50.514;9.678;2024-01-07T04:32:46;98509.44;;;1.56;100.00
29903;BME280;30288;50.514;9.678;2024-01-07T04:34:52;98517.66;;;1.52;100.00
29903;BME280;30288;50.514;9.678;2024-01-07T04:36:54;98522.66;;;1.55;100.00
29903;BME280;30288;50.514;9.678;2024-01-07T04:38:59;98522.63;;;1.49;100.00
29903;BME280;30288;50.514;9.678;2024-01-07T04:41:07;98524.28;;;1.53;100.00
29903;BME280;30288;50.514;9.678;2024-01-07T04:43:13;98535.00;;;1.48;100.00
29903;BME280;30288;50.514;9.678;2024-01-07T04:45:18;98525.91;;;1.45;100.00
29903;BME280;30288;50.514;9.678;2024-01-07T04:47:26;98527.56;;;1.43;100.00
29903;BME280;30288;50.514;9.678;2024-01-07T04:49:32;98530.94;;;1.51;100.00
29903;BME280;30288;50.514;9.678;2024-01-07T04:51:38;98532.56;;;1.49;100.00
29903;BME280;30288;50.514;9.678;2024-01-07T04:53:46;98543.28;;;1.41;100.00
29903;BME280;30288;50.514;9.678;2024-01-07T04:55:55;98539.19;;;1.47;100.00
29903;BME280;30288;50.514;9.678;2024-01-07T04:58:03;98540.81;;;1.48;100.00
29903;BME280;30288;50.514;9.678;2024-01-07T05:00:12;98545.75;;;1.41;100.00
29903;BME280;30288;50.514;9.678;2024-01-07T05:02:20;98551.50;;;1.38;100.00
29903;BME280;30288;50.514;9.678;2024-01-07T05:04:26;98559.81;;;1.40;100.00
29903;BME280;30288;50.514;9.678;2024-01-07T05:06:31;98558.94;;;1.32;100.00
29903;BME280;30288;50.514;9.678;2024-01-07T05:08:37;98562.19;;;1.22;100.00
29903;BME280;30288;50.514;9.678;2024-01-07T05:10:43;98558.84;;;1.20;100.00
29903;BME280;30288;50.514;9.678;2024-01-07T05:12:49;98568.75;;;1.20;100.00
29903;BME280;30288;50.514;9.678;2024-01-07T05:14:57;98557.19;;;1.19;100.00
29903;BME280;30288;50.514;9.678;2024-01-07T05:17:03;98570.44;;;1.21;100.00
29903;BME280;30288;50.514;9.678;2024-01-07T05:19:09;98567.19;;;1.28;100.00
29903;BME280;30288;50.514;9.678;2024-01-07T05:21:18;98573.72;;;1.20;100.00
29903;BME280;30288;50.514;9.678;2024-01-07T05:23:24;98570.41;;;1.18;100.00
29903;BME280;30288;50.514;9.678;2024-01-07T05:25:30;98575.41;;;1.21;100.00
29903;BME280;30288;50.514;9.678;2024-01-07T05:27:35;98585.38;;;1.27;100.00
29903;BME280;30288;50.514;9.678;2024-01-07T05:29:44;98576.28;;;1.27;100.00
29903;BME280;30288;50.514;9.678;2024-01-07T05:31:54;98582.88;;;1.28;100.00
29903;BME280;30288;50.514;9.678;2024-01-07T05:34:00;98588.66;;;1.26;100.00
29903;BME280;30288;50.514;9.678;2024-01-07T05:36:07;98588.66;;;1.26;100.00
29903;BME280;30288;50.514;9.678;2024-01-07T05:38:13;98594.47;;;1.29;100.00
29903;BME280;30288;50.514;9.678;2024-01-07T05:40:19;98596.97;;;1.31;100.00
29903;BME280;30288;50.514;9.678;2024-01-07T05:42:25;98597.84;;;1.41;100.00
29903;BME280;30288;50.514;9.678;2024-01-07T05:44:31;98604.47;;;1.40;100.00
29903;BME280;30288;50.514;9.678;2024-01-07T05:46:37;98599.47;;;1.39;100.00
29903;BME280;30288;50.514;9.678;2024-01-07T05:48:47;98613.53;;;1.35;100.00
29903;BME280;30288;50.514;9.678;2024-01-07T05:50:52;98619.28;;;1.28;100.00
29903;BME280;30288;50.514;9.678;2024-01-07T05:52:59;98616.78;;;1.28;100.00
29903;BME280;30288;50.514;9.678;2024-01-07T05:55:06;98613.44;;;1.23;100.00
29903;BME280;30288;50.514;9.678;2024-01-07T05:57:13;98625.00;;;1.21;100.00
29903;BME280;30288;50.514;9.678;2024-01-07T05:59:18;98635.69;;;1.15;100.00
29903;BME280;30288;50.514;9.678;2024-01-07T06:01:23;98636.59;;;1.22;100.00
29903;BME280;30288;50.514;9.678;2024-01-07T06:03:29;98639.81;;;1.15;100.00
29903;BME280;30288;50.514;9.678;2024-01-07T06:05:41;98643.09;;;1.11;100.00
29903;BME280;30288;50.514;9.678;2024-01-07T06:07:46;98646.34;;;1.02;100.00
29903;BME280;30288;50.514;9.678;2024-01-07T06:09:52;98646.38;;;1.04;100.00
29903;BME280;30288;50.514;9.678;2024-01-07T06:11:57;98643.00;;;0.99;100.00
29903;BME280;30288;50.514;9.678;2024-01-07T06:14:05;98646.31;;;0.98;100.00
29903;BME280;30288;50.514;9.678;2024-01-07T06:16:10;98651.25;;;0.98;100.00
29903;BME280;30288;50.514;9.678;2024-01-07T06:18:16;98647.91;;;0.93;100.00
29903;BME280;30288;50.514;9.678;2024-01-07T06:20:22;98652.03;;;0.95;100.00
29903;BME280;30288;50.514;9.678;2024-01-07T06:22:36;98649.63;;;1.00;100.00
29903;BME280;30288;50.514;9.678;2024-01-07T06:24:42;98652.94;;;0.99;100.00
29903;BME280;30288;50.514;9.678;2024-01-07T06:26:48;98661.13;;;0.92;100.00
29903;BME280;30288;50.514;9.678;2024-01-07T06:28:54;98665.25;;;0.91;100.00
29903;BME280;30288;50.514;9.678;2024-01-07T06:31:06;98667.72;;;0.90;100.00
29903;BME280;30288;50.514;9.678;2024-01-07T06:33:11;98664.38;;;0.84;100.00
29903;BME280;30288;50.514;9.678;2024-01-07T06:35:17;98675.94;;;0.85;100.00
29903;BME280;30288;50.514;9.678;2024-01-07T06:37:23;98672.69;;;0.90;100.00
29903;BME280;30288;50.514;9.678;2024-01-07T06:39:33;98683.44;;;0.93;100.00
29903;BME280;30288;50.514;9.678;2024-01-07T06:41:40;98682.59;;;0.90;100.00
29903;BME280;30288;50.514;9.678;2024-01-07T06:43:45;98685.88;;;0.88;100.00
29903;BME280;30288;50.514;9.678;2024-01-07T06:45:58;98691.63;;;0.86;100.00
29903;BME280;30288;50.514;9.678;2024-01-07T06:48:04;98702.38;;;0.86;100.00
29903;BME280;30288;50.514;9.678;2024-01-07T06:50:10;98705.69;;;0.85;100.00
29903;BME280;30288;50.514;9.678;2024-01-07T06:52:30;98700.75;;;0.88;100.00
29903;BME280;30288;50.514;9.678;2024-01-07T06:54:38;98705.72;;;0.88;100.00
29903;BME280;30288;50.514;9.678;2024-01-07T06:56:44;98707.34;;;0.86;100.00
29903;BME280;30288;50.514;9.678;2024-01-07T06:58:50;98712.34;;;0.90;100.00
29903;BME280;30288;50.514;9.678;2024-01-07T07:00:58;98711.53;;;0.92;100.00
29903;BME280;30288;50.514;9.678;2024-01-07T07:03:01;98716.50;;;0.95;100.00
29903;BME280;30288;50.514;9.678;2024-01-07T07:05:08;98719.06;;;1.00;100.00
29903;BME280;30288;50.514;9.678;2024-01-07T07:07:13;98720.72;;;0.99;100.00
29903;BME280;30288;50.514;9.678;2024-01-07T07:09:21;98730.56;;;0.95;100.00
29903;BME280;30288;50.514;9.678;2024-01-07T07:11:31;98727.25;;;0.93;100.00
29903;BME280;30288;50.514;9.678;2024-01-07T07:13:36;98732.97;;;0.87;100.00
29903;BME280;30288;50.514;9.678;2024-01-07T07:15:43;98733.88;;;0.94;100.00
29903;BME280;30288;50.514;9.678;2024-01-07T07:17:48;98736.38;;;0.97;100.00
29903;BME280;30288;50.514;9.678;2024-01-07T07:19:53;98739.66;;;0.94;100.00
29903;BME280;30288;50.514;9.678;2024-01-07T07:22:01;98735.47;;;0.92;100.00
29903;BME280;30288;50.514;9.678;2024-01-07T07:24:08;98744.53;;;0.86;100.00
29903;BME280;30288;50.514;9.678;2024-01-07T07:26:13;98737.03;;;0.80;100.00
29903;BME280;30288;50.514;9.678;2024-01-07T07:28:21;98741.22;;;0.87;100.00
29903;BME280;30288;50.514;9.678;2024-01-07T07:30:27;98747.84;;;0.85;100.00
29903;BME280;30288;50.514;9.678;2024-01-07T07:32:33;98753.63;;;0.87;100.00
29903;BME280;30288;50.514;9.678;2024-01-07T07:34:42;98751.91;;;0.80;100.00
29903;BME280;30288;50.514;9.678;2024-01-07T07:36:48;98755.94;;;0.71;100.00
29903;BME280;30288;50.514;9.678;2024-01-07T07:38:51;98759.31;;;0.76;100.00
29903;BME280;30288;50.514;9.678;2024-01-07T07:41:12;98765.03;;;0.73;100.00
29903;BME280;30288;50.514;9.678;2024-01-07T07:43:21;98775.75;;;0.71;100.00
29903;BME280;30288;50.514;9.678;2024-01-07T07:45:27;98774.81;;;0.61;100.00
29903;BME280;30288;50.514;9.678;2024-01-07T07:47:31;98774.81;;;0.61;100.00
29903;BME280;30288;50.514;9.678;2024-01-07T07:49:37;98785.56;;;0.62;100.00
29903;BME280;30288;50.514;9.678;2024-01-07T07:51:43;98789.56;;;0.52;100.00
29903;BME280;30288;50.514;9.678;2024-01-07T07:53:55;98794.34;;;0.40;100.00
29903;BME280;30288;50.514;9.678;2024-01-07T07:56:01;98797.44;;;0.25;100.00
29903;BME280;30288;50.514;9.678;2024-01-07T07:58:07;98803.25;;;0.26;100.00
29903;BME280;30288;50.514;9.678;2024-01-07T08:00:16;98800.88;;;0.35;100.00
29903;BME280;30288;50.514;9.678;2024-01-07T08:02:25;98807.47;;;0.33;100.00
29903;BME280;30288;50.514;9.678;2024-01-07T08:04:30;98814.91;;;0.33;100.00
29903;BME280;30288;50.514;9.678;2024-01-07T08:06:36;98816.50;;;0.29;100.00
29903;BME280;30288;50.514;9.678;2024-01-07T08:08:46;98822.25;;;0.27;100.00
29903;BME280;30288;50.514;9.678;2024-01-07T08:10:51;98825.72;;;0.38;100.00
29903;BME280;30288;50.514;9.678;2024-01-07T08:12:56;98832.38;;;0.42;100.00
29903;BME280;30288;50.514;9.678;2024-01-07T08:15:02;98832.41;;;0.45;100.00
29903;BME280;30288;50.514;9.678;2024-01-07T08:17:11;98842.34;;;0.48;100.00
29903;BME280;30288;50.514;9.678;2024-01-07T08:19:14;98834.72;;;0.34;100.00
29903;BME280;30288;50.514;9.678;2024-01-07T08:21:25;98837.38;;;0.48;100.00
29903;BME280;30288;50.514;9.678;2024-01-07T08:23:30;98830.69;;;0.41;100.00
29903;BME280;30288;50.514;9.678;2024-01-07T08:25:35;98829.03;;;0.40;100.00
29903;BME280;30288;50.514;9.678;2024-01-07T08:27:40;98835.69;;;0.44;100.00
29903;BME280;30288;50.514;9.678;2024-01-07T08:29:46;98837.25;;;0.39;100.00
29903;BME280;30288;50.514;9.678;2024-01-07T08:31:56;98842.16;;;0.33;100.00
29903;BME280;30288;50.514;9.678;2024-01-07T08:34:06;98853.66;;;0.31;100.00
29903;BME280;30288;50.514;9.678;2024-01-07T08:36:12;98848.75;;;0.34;100.00
29903;BME280;30288;50.514;9.678;2024-01-07T08:38:17;98854.41;;;0.25;100.00
29903;BME280;30288;50.514;9.678;2024-01-07T08:40:20;98853.66;;;0.31;100.00
29903;BME280;30288;50.514;9.678;2024-01-07T08:42:27;98858.53;;;0.25;100.00
29903;BME280;30288;50.514;9.678;2024-01-07T08:44:34;98856.13;;;0.28;100.00
29903;BME280;30288;50.514;9.678;2024-01-07T08:46:41;98855.13;;;0.20;100.00
29903;BME280;30288;50.514;9.678;2024-01-07T08:48:48;98857.56;;;0.15;100.00
29903;BME280;30288;50.514;9.678;2024-01-07T08:50:56;98868.31;;;0.17;100.00
29903;BME280;30288;50.514;9.678;2024-01-07T08:53:03;98877.34;;;0.15;100.00
29903;BME280;30288;50.514;9.678;2024-01-07T08:55:09;98864.88;;;0.08;100.00
29903;BME280;30288;50.514;9.678;2024-01-07T08:57:17;98871.47;;;0.07;100.00
29903;BME280;30288;50.514;9.678;2024-01-07T08:59:22;98879.00;;;0.13;100.00
29903;BME280;30288;50.514;9.678;2024-01-07T09:01:30;98874.97;;;0.21;100.00
29903;BME280;30288;50.514;9.678;2024-01-07T09:03:37;98882.38;;;0.18;100.00
29903;BME280;30288;50.514;9.678;2024-01-07T09:05:44;98882.25;;;0.09;100.00
29903;BME280;30288;50.514;9.678;2024-01-07T09:07:52;98885.38;;;-0.01;100.00
29903;BME280;30288;50.514;9.678;2024-01-07T09:09:58;98887.00;;;-0.02;100.00
29903;BME280;30288;50.514;9.678;2024-01-07T09:12:05;98892.69;;;-0.07;100.00
29903;BME280;30288;50.514;9.678;2024-01-07T09:14:10;98890.25;;;-0.04;100.00
29903;BME280;30288;50.514;9.678;2024-01-07T09:16:17;98894.28;;;-0.11;100.00
29903;BME280;30288;50.514;9.678;2024-01-07T09:18:22;98901.63;;;-0.14;100.00
29903;BME280;30288;50.514;9.678;2024-01-07T09:20:28;98894.06;;;-0.23;100.00
29903;BME280;30288;50.514;9.678;2024-01-07T09:22:31;98905.75;;;-0.16;100.00
29903;BME280;30288;50.514;9.678;2024-01-07T09:24:42;98915.75;;;-0.10;100.00
29903;BME280;30288;50.514;9.678;2024-01-07T09:26:45;98909.81;;;-0.18;100.00
29903;BME280;30288;50.514;9.678;2024-01-07T09:28:51;98913.22;;;-0.13;100.00
29903;BME280;30288;50.514;9.678;2024-01-07T09:30:59;98923.91;;;-0.14;100.00
29903;BME280;30288;50.514;9.678;2024-01-07T09:33:07;98929.56;;;-0.21;100.00
29903;BME280;30288;50.514;9.678;2024-01-07T09:35:13;98926.94;;;-0.30;100.00
29903;BME280;30288;50.514;9.678;2024-01-07T09:37:19;98922.03;;;-0.27;100.00
29903;BME280;30288;50.514;9.678;2024-01-07T09:39:25;98925.22;;;-0.34;100.00
29903;BME280;30288;50.514;9.678;2024-01-07T09:41:33;98936.72;;;-0.36;100.00
29903;BME280;30288;50.514;9.678;2024-01-07T09:43:42;98934.94;;;-0.43;100.00
29903;BME280;30288;50.514;9.678;2024-01-07T09:45:48;98940.69;;;-0.43;100.00
29903;BME280;30288;50.514;9.678;2024-01-07T09:47:54;98938.31;;;-0.38;100.00
29903;BME280;30288;50.514;9.678;2024-01-07T09:50:00;98948.97;;;-0.42;100.00
29903;BME280;30288;50.514;9.678;2024-01-07T09:52:13;98947.03;;;-0.57;100.00
29903;BME280;30288;50.514;9.678;2024-01-07T09:54:22;98944.72;;;-0.49;100.00
29903;BME280;30288;50.514;9.678;2024-01-07T09:56:38;98945.56;;;-0.47;100.00
29903;BME280;30288;50.514;9.678;2024-01-07T09:58:45;98945.47;;;-0.52;100.00
29903;BME280;30288;50.514;9.678;2024-01-07T10:00:52;98957.13;;;-0.46;100.00
29903;BME280;30288;50.514;9.678;2024-01-07T10:02:58;98956.91;;;-0.58;100.00
29903;BME280;30288;50.514;9.678;2024-01-07T10:05:06;98952.06;;;-0.54;100.00
29903;BME280;30288;50.514;9.678;2024-01-07T10:07:12;98952.97;;;-0.47;100.00
29903;BME280;30288;50.514;9.678;2024-01-07T10:09:18;98961.28;;;-0.45;100.00
29903;BME280;30288;50.514;9.678;2024-01-07T10:11:23;98962.25;;;-0.38;100.00
29903;BME280;30288;50.514;9.678;2024-01-07T10:13:31;98954.84;;;-0.37;100.00
29903;BME280;30288;50.514;9.678;2024-01-07T10:15:37;98953.09;;;-0.41;100.00
29903;BME280;30288;50.514;9.678;2024-01-07T10:17:42;98948.03;;;-0.47;100.00
29903;BME280;30288;50.514;9.678;2024-01-07T10:19:45;98961.41;;;-0.39;100.00
29903;BME280;30288;50.514;9.678;2024-01-07T10:22:01;98966.34;;;-0.39;100.00
29903;BME280;30288;50.514;9.678;2024-01-07T10:24:10;98962.16;;;-0.41;100.00
29903;BME280;30288;50.514;9.678;2024-01-07T10:26:16;98958.00;;;-0.44;100.00
29903;BME280;30288;50.514;9.678;2024-01-07T10:28:34;98961.28;;;-0.45;100.00
29903;BME280;30288;50.514;9.678;2024-01-07T10:30:49;98962.88;;;-0.47;100.00
29903;BME280;30288;50.514;9.678;2024-01-07T10:32:58;98957.13;;;-0.46;100.00
29903;BME280;30288;50.514;9.678;2024-01-07T10:35:06;98957.09;;;-0.49;100.00
29903;BME280;30288;50.514;9.678;2024-01-07T10:37:13;98960.28;;;-0.55;100.00
29903;BME280;30288;50.514;9.678;2024-01-07T10:39:20;98958.59;;;-0.57;100.00
29903;BME280;30288;50.514;9.678;2024-01-07T10:41:31;98957.72;;;-0.59;100.00
29903;BME280;30288;50.514;9.678;2024-01-07T10:43:42;98963.66;;;-0.50;100.00
29903;BME280;30288;50.514;9.678;2024-01-07T10:45:48;98962.84;;;-0.50;100.00
29903;BME280;30288;50.514;9.678;2024-01-07T10:47:55;98958.00;;;-0.44;100.00
29903;BME280;30288;50.514;9.678;2024-01-07T10:50:06;98962.88;;;-0.47;100.00
29903;BME280;30288;50.514;9.678;2024-01-07T10:52:16;98966.28;;;-0.42;100.00
29903;BME280;30288;50.514;9.678;2024-01-07T10:54:24;98958.22;;;-0.32;100.00
29903;BME280;30288;50.514;9.678;2024-01-07T10:56:39;98958.00;;;-0.44;100.00
29903;BME280;30288;50.514;9.678;2024-01-07T10:58:50;98962.84;;;-0.50;100.00
29903;BME280;30288;50.514;9.678;2024-01-07T11:00:57;98959.69;;;-0.43;100.00
29903;BME280;30288;50.514;9.678;2024-01-07T11:03:11;98951.34;;;-0.48;100.00
29903;BME280;30288;50.514;9.678;2024-01-07T11:05:27;98952.19;;;-0.48;100.00
29903;BME280;30288;50.514;9.678;2024-01-07T11:07:43;98948.81;;;-0.50;100.00
29903;BME280;30288;50.514;9.678;2024-01-07T11:10:00;98951.38;;;-0.45;100.00